Argo Village, New York
Current Conditions -  °F | °C
As of 8:51 PM on Wednesday 26 Nov 2014 (Local Time) from KJFK Reporting Station
Light Snow Light Snow  
Wind Chill: 26°   Ceiling: 1200
Heat Index: 36°   Visibility: 5mi
Dew Point: 32°   Wind: 17mph
Humidity: 86%   Direction: 340°NNW
Pressure: 29.79"   Gusts: 26mph
Location:  40.7013°N, 73.7074°W
Report Text: KJFK 270151Z 34015G23KT 5SM -RASN BR BKN012 OVC017 02/00 A2979 RMK AO2 SNB38 SLP088 P0003 T00220000 $
Loading
Personal Weather Stations






























Interactive Weather Map New forecast layout! Learn more

10-Day Weather Forecast

Advertisements
Track Severe Weather on mobile